Time;durP1;ratioP1;P1;durP2;ratioP2;P2;SDS_P1;SDS_P2;PMS_P1;PMS_P2;Temp;Humidity;BMP_temperature;BMP_pressure;BME280_temperature;BME280_humidity;BME280_pressure;Samples;Min_cycle;Max_cycle;Signal;HPM_P1;HPM_P2
2022/05/01 00:01:35;;;;;;;12.48;8.60;;;9.30;99.90;;;;;;5019989;28;20045;-72
2022/05/01 00:04:01;;;;;;;14.02;8.13;;;9.30;99.90;;;;;;5041532;28;20021;-73
2022/05/01 00:06:26;;;;;;;15.73;7.75;;;9.30;99.90;;;;;;5038039;28;20025;-72
2022/05/01 00:08:52;;;;;;;11.80;6.90;;;9.30;99.90;;;;;;5035549;28;20446;-72
2022/05/01 00:11:17;;;;;;;11.95;6.78;;;9.30;99.90;;;;;;5020096;28;20123;-72
2022/05/01 00:13:45;;;;;;;10.75;7.28;;;9.30;99.90;;;;;;5039237;28;20029;-72
2022/05/01 00:16:12;;;;;;;13.75;7.93;;;9.30;99.90;;;;;;5036246;28;20036;-73
2022/05/01 00:18:38;;;;;;;9.23;6.50;;;9.30;99.90;;;;;;5039850;28;20111;-72
2022/05/01 00:21:04;;;;;;;10.90;6.15;;;9.20;99.90;;;;;;5038035;28;20247;-72
2022/05/01 00:23:30;;;;;;;11.68;7.30;;;9.20;99.90;;;;;;5018497;28;20036;-73
2022/05/01 00:25:58;;;;;;;11.27;7.05;;;9.20;99.90;;;;;;5037488;28;20021;-72
2022/05/01 00:28:24;;;;;;;11.25;7.22;;;9.10;99.90;;;;;;5022639;28;20022;-72
2022/05/01 00:30:49;;;;;;;15.20;6.88;;;9.10;99.90;;;;;;5019103;28;20040;-72
2022/05/01 00:38:44;;;;;;;11.65;7.00;;;9.00;99.90;;;;;;5018182;28;20083;-73
2022/05/01 00:41:11;;;;;;;14.63;7.55;;;9.00;99.90;;;;;;5023903;28;20120;-72
2022/05/01 00:43:55;;;;;;;16.73;8.43;;;9.00;99.90;;;;;;5036245;28;20036;-72
2022/05/01 00:46:21;;;;;;;14.50;7.53;;;8.90;99.90;;;;;;5039059;28;20091;-72
2022/05/01 00:48:47;;;;;;;11.48;7.35;;;8.90;99.90;;;;;;5035161;28;20037;-72
2022/05/01 00:51:13;;;;;;;14.35;6.80;;;8.90;99.90;;;;;;5020012;28;20033;-72
2022/05/01 00:53:39;;;;;;;14.20;7.55;;;8.90;99.90;;;;;;5020238;28;20025;-73
2022/05/01 00:56:06;;;;;;;15.85;8.30;;;8.80;99.90;;;;;;5039621;28;20074;-72
2022/05/01 00:58:32;;;;;;;16.38;7.78;;;8.80;99.90;;;;;;5016117;28;20033;-72
2022/05/01 01:00:58;;;;;;;14.25;7.50;;;8.80;99.90;;;;;;5037557;28;20032;-72
2022/05/01 01:03:24;;;;;;;11.80;7.40;;;8.80;99.90;;;;;;5017076;28;21718;-72
2022/05/01 01:05:49;;;;;;;20.48;8.88;;;8.80;99.90;;;;;;5039586;28;20646;-72
2022/05/01 01:08:15;;;;;;;13.43;8.15;;;8.80;99.90;;;;;;5033910;28;20489;-72
2022/05/01 01:10:41;;;;;;;11.38;7.55;;;8.70;99.90;;;;;;5034688;28;20045;-72
2022/05/01 01:13:06;;;;;;;14.73;7.72;;;8.70;99.90;;;;;;5020396;28;20710;-73
2022/05/01 01:15:34;;;;;;;12.68;8.05;;;8.70;99.90;;;;;;5031610;28;20044;-72
2022/05/01 01:17:59;;;;;;;20.83;9.35;;;8.70;99.90;;;;;;5035024;28;20029;-73
2022/05/01 01:20:27;;;;;;;11.25;7.53;;;8.70;99.90;;;;;;5034903;28;20033;-73
2022/05/01 01:22:55;;;;;;;12.20;7.47;;;8.60;99.90;;;;;;5018101;28;20025;-72
2022/05/01 01:25:24;;;;;;;15.10;7.82;;;8.60;99.90;;;;;;5016448;28;20500;-72
2022/05/01 01:27:51;;;;;;;13.20;7.18;;;8.60;99.90;;;;;;5018169;28;20045;-72
2022/05/01 01:33:02;;;;;;;16.02;7.85;;;8.60;99.90;;;;;;5034629;28;20128;-72
2022/05/01 01:35:29;;;;;;;14.75;7.50;;;8.60;99.90;;;;;;5035765;28;20029;-72
2022/05/01 01:37:56;;;;;;;12.00;6.93;;;8.50;99.90;;;;;;5016454;28;20029;-72
2022/05/01 01:40:31;;;;;;;14.98;8.55;;;8.50;99.90;;;;;;5030625;28;20033;-72
2022/05/01 01:42:58;;;;;;;12.75;8.43;;;8.50;99.90;;;;;;5017985;28;20112;-73
2022/05/01 01:45:28;;;;;;;15.32;8.00;;;8.40;99.90;;;;;;5032738;28;20025;-73
2022/05/01 01:48:09;;;;;;;10.93;7.43;;;8.30;99.90;;;;;;5019158;28;20053;-72
2022/05/01 01:50:34;;;;;;;15.67;7.93;;;8.40;99.90;;;;;;5032272;28;20049;-72
2022/05/01 01:53:00;;;;;;;15.07;7.60;;;8.40;99.90;;;;;;5017448;28;20033;-72
2022/05/01 01:55:25;;;;;;;14.65;8.27;;;8.40;99.90;;;;;;5029306;28;20029;-72
2022/05/01 01:57:51;;;;;;;13.45;8.07;;;8.40;99.90;;;;;;5018964;28;20479;-72
2022/05/01 02:00:17;;;;;;;10.00;7.25;;;8.50;99.90;;;;;;5036419;28;20033;-72
2022/05/01 02:02:42;;;;;;;13.10;7.72;;;8.50;99.90;;;;;;5017629;28;20041;-72
2022/05/01 02:05:08;;;;;;;15.85;7.97;;;8.50;99.90;;;;;;5020210;28;20037;-72
2022/05/01 02:07:34;;;;;;;14.65;7.72;;;8.50;99.90;;;;;;5017307;28;20116;-72
2022/05/01 02:10:00;;;;;;;14.98;7.95;;;8.50;99.90;;;;;;5036752;28;20041;-72
2022/05/01 02:12:27;;;;;;;12.60;7.47;;;8.50;99.90;;;;;;5033594;28;20026;-72
2022/05/01 02:14:53;;;;;;;15.40;8.05;;;8.60;99.90;;;;;;5019371;28;20025;-72
2022/05/01 02:17:20;;;;;;;15.95;8.45;;;8.60;99.90;;;;;;5038080;28;20405;-72
2022/05/01 02:19:46;;;;;;;14.18;8.20;;;8.60;99.90;;;;;;5009955;28;20208;-72
2022/05/01 02:22:13;;;;;;;12.43;8.15;;;8.60;99.90;;;;;;5018567;28;20116;-72
2022/05/01 02:24:39;;;;;;;15.70;8.02;;;8.60;99.90;;;;;;5002132;28;20041;-72
2022/05/01 02:27:05;;;;;;;11.35;8.07;;;8.60;99.90;;;;;;5013235;28;20025;-72
2022/05/01 02:29:30;;;;;;;14.68;8.05;;;8.60;99.90;;;;;;5036087;28;20583;-72
2022/05/01 02:31:56;;;;;;;14.80;8.35;;;8.60;99.90;;;;;;5035710;28;20027;-72
2022/05/01 02:34:23;;;;;;;13.93;8.25;;;8.70;99.90;;;;;;5034389;28;20052;-72
2022/05/01 02:36:52;;;;;;;15.35;8.07;;;8.70;99.90;;;;;;5018479;28;20029;-72
2022/05/01 02:39:19;;;;;;;11.45;7.78;;;8.70;99.90;;;;;;5016482;28;20029;-72
2022/05/01 02:41:45;;;;;;;14.55;8.27;;;8.70;99.90;;;;;;5036151;28;20031;-72
2022/05/01 02:44:11;;;;;;;14.10;7.55;;;8.70;99.90;;;;;;5014119;28;20033;-72
2022/05/01 02:46:37;;;;;;;13.35;7.93;;;8.70;99.90;;;;;;5016766;28;20075;-71
2022/05/01 02:49:05;;;;;;;16.38;8.05;;;8.70;99.90;;;;;;5038000;28;20031;-71
2022/05/01 02:51:31;;;;;;;13.45;7.63;;;8.70;99.90;;;;;;5033596;28;20041;-71
2022/05/01 02:53:58;;;;;;;12.93;7.63;;;8.60;99.90;;;;;;5019200;28;20025;-71
2022/05/01 02:56:24;;;;;;;15.38;7.28;;;8.70;99.90;;;;;;5038697;28;20387;-70
2022/05/01 02:58:49;;;;;;;11.52;6.85;;;8.70;99.90;;;;;;5035338;28;20029;-71
2022/05/01 03:01:15;;;;;;;15.98;7.28;;;8.70;99.90;;;;;;5031697;28;20041;-71
2022/05/01 03:03:40;;;;;;;15.73;7.60;;;8.70;99.90;;;;;;5020050;28;20445;-70
2022/05/01 03:06:06;;;;;;;12.68;7.20;;;8.70;99.90;;;;;;5037205;28;20113;-71
2022/05/01 03:08:32;;;;;;;16.40;7.53;;;8.70;99.90;;;;;;5018980;28;20596;-71
2022/05/01 03:10:58;;;;;;;15.82;7.15;;;8.70;99.90;;;;;;5035535;28;20608;-71
2022/05/01 03:13:23;;;;;;;11.63;7.43;;;8.70;99.90;;;;;;5019207;28;20033;-71
2022/05/01 03:15:49;;;;;;;12.93;6.10;;;8.70;99.90;;;;;;5034643;28;20446;-71
2022/05/01 03:23:45;;;;;;;13.02;6.22;;;8.70;99.90;;;;;;5037280;28;20032;-71
2022/05/01 03:26:10;;;;;;;15.35;6.68;;;8.70;99.90;;;;;;5037228;28;20040;-71
2022/05/01 03:28:36;;;;;;;11.85;6.07;;;8.70;99.90;;;;;;5015357;28;20091;-72
2022/05/01 03:31:08;;;;;;;10.50;6.18;;;8.70;99.90;;;;;;5016745;28;20457;-71
2022/05/01 03:33:35;;;;;;;12.45;6.78;;;8.70;99.90;;;;;;5030725;28;20021;-72
2022/05/01 03:36:05;;;;;;;14.50;6.72;;;8.70;99.90;;;;;;5036175;28;20021;-71
2022/05/01 03:38:30;;;;;;;11.88;6.10;;;8.70;99.90;;;;;;5016235;28;20057;-71
2022/05/01 03:40:57;;;;;;;11.85;6.32;;;8.70;99.90;;;;;;5015674;28;20075;-71
2022/05/01 03:43:22;;;;;;;12.98;6.18;;;8.80;99.90;;;;;;5032075;28;20519;-71
2022/05/01 03:45:48;;;;;;;12.57;6.10;;;8.80;99.90;;;;;;5018967;28;20029;-71
2022/05/01 03:48:13;;;;;;;10.98;6.50;;;8.80;99.90;;;;;;5018476;28;20033;-70
2022/05/01 03:50:40;;;;;;;11.50;6.28;;;8.70;99.90;;;;;;5035158;28;20112;-71
2022/05/01 03:53:07;;;;;;;10.13;5.68;;;8.70;99.90;;;;;;5031460;28;20108;-71
2022/05/01 03:55:33;;;;;;;10.27;5.82;;;8.70;99.90;;;;;;5014034;28;20039;-71
2022/05/01 03:58:00;;;;;;;14.57;6.00;;;8.60;99.90;;;;;;5033788;28;20114;-71
2022/05/01 04:00:27;;;;;;;14.20;6.70;;;8.70;99.90;;;;;;5015060;28;20456;-71
2022/05/01 04:02:53;;;;;;;10.18;5.55;;;8.60;99.90;;;;;;5033643;28;20702;-71
2022/05/01 04:05:19;;;;;;;9.82;5.82;;;8.50;99.90;;;;;;5016650;28;20112;-71
2022/05/01 04:07:45;;;;;;;9.63;5.85;;;8.50;99.90;;;;;;5014977;28;20060;-71
2022/05/01 04:10:11;;;;;;;12.07;5.97;;;8.50;99.90;;;;;;5017831;28;20033;-72
2022/05/01 04:12:42;;;;;;;10.00;5.65;;;8.40;99.90;;;;;;5011130;28;20053;-72
2022/05/01 04:15:09;;;;;;;12.50;6.20;;;8.40;99.90;;;;;;5016273;28;20029;-73
2022/05/01 04:17:38;;;;;;;8.02;5.45;;;8.40;99.90;;;;;;5016235;28;20113;-72
2022/05/01 04:20:08;;;;;;;9.93;5.93;;;8.30;99.90;;;;;;5015261;28;20032;-71
2022/05/01 04:22:42;;;;;;;11.27;5.38;;;8.40;99.90;;;;;;4999447;28;20436;-72
2022/05/01 04:25:18;;;;;;;11.52;5.70;;;8.40;99.90;;;;;;5034771;28;20037;-72
2022/05/01 04:27:46;;;;;;;10.15;5.85;;;8.40;99.90;;;;;;5034945;28;20036;-72
2022/05/01 04:30:13;;;;;;;10.27;6.22;;;8.40;99.90;;;;;;4999352;28;20038;-71
2022/05/01 04:32:53;;;;;;;9.80;5.50;;;8.40;99.90;;;;;;5016528;28;20112;-70
2022/05/01 04:35:31;;;;;;;15.27;6.20;;;8.40;99.90;;;;;;5032455;28;20478;-72
2022/05/01 04:38:01;;;;;;;11.32;6.28;;;8.30;99.90;;;;;;5017360;28;20342;-72
2022/05/01 04:40:34;;;;;;;11.45;6.28;;;8.30;99.90;;;;;;5031338;28;20025;-72
2022/05/01 04:43:08;;;;;;;8.65;6.53;;;8.20;99.90;;;;;;5028651;28;20576;-71
2022/05/01 04:45:35;;;;;;;12.27;5.95;;;8.20;99.90;;;;;;5034512;28;20104;-71
2022/05/01 04:48:02;;;;;;;13.38;6.13;;;8.20;99.90;;;;;;5017405;28;21183;-73
2022/05/01 04:50:28;;;;;;;11.43;6.38;;;8.20;99.90;;;;;;5037994;28;20107;-71
2022/05/01 04:52:55;;;;;;;9.15;5.70;;;8.20;99.90;;;;;;5017524;28;20031;-71
2022/05/01 04:55:21;;;;;;;13.40;7.60;;;8.10;99.90;;;;;;5037123;28;20371;-71
2022/05/01 04:57:47;;;;;;;11.88;7.05;;;8.10;99.90;;;;;;5035970;28;20461;-72
2022/05/01 05:00:22;;;;;;;13.13;6.68;;;8.10;99.90;;;;;;5036636;28;20104;-71
2022/05/01 05:02:51;;;;;;;11.93;6.60;;;8.00;99.90;;;;;;5018887;28;20071;-72
2022/05/01 05:05:18;;;;;;;11.73;7.38;;;8.10;99.90;;;;;;5019140;28;20149;-72
2022/05/01 05:07:44;;;;;;;12.88;7.10;;;8.20;99.90;;;;;;5037400;28;20911;-71
2022/05/01 05:10:11;;;;;;;14.27;7.28;;;8.20;99.90;;;;;;5000963;28;20375;-71
2022/05/01 05:12:42;;;;;;;13.27;7.13;;;8.30;99.90;;;;;;5017884;28;20025;-72
2022/05/01 05:15:09;;;;;;;13.45;7.38;;;8.40;99.90;;;;;;5034506;28;20052;-70
2022/05/01 05:17:36;;;;;;;11.45;6.65;;;8.40;99.90;;;;;;5039126;28;20020;-73
2022/05/01 05:20:03;;;;;;;14.95;7.38;;;8.40;99.90;;;;;;5002748;28;20025;-72
2022/05/01 05:22:29;;;;;;;9.68;6.55;;;8.50;99.90;;;;;;5018303;28;20695;-71
2022/05/01 05:24:55;;;;;;;15.07;6.80;;;8.60;99.90;;;;;;5011918;28;20499;-70
2022/05/01 05:27:25;;;;;;;10.10;6.40;;;8.60;99.90;;;;;;5016996;28;20043;-71
2022/05/01 05:29:57;;;;;;;13.32;7.55;;;8.60;99.90;;;;;;5038108;28;20029;-71
2022/05/01 05:32:25;;;;;;;11.38;7.07;;;8.70;99.90;;;;;;5017486;28;20085;-72
2022/05/01 05:34:51;;;;;;;11.85;6.45;;;8.80;99.90;;;;;;5016859;28;20021;-73
2022/05/01 05:37:17;;;;;;;11.70;5.93;;;8.80;99.90;;;;;;5022039;28;20484;-71
2022/05/01 05:39:44;;;;;;;12.80;6.82;;;8.90;99.90;;;;;;5034110;28;20040;-73
2022/05/01 05:42:10;;;;;;;11.52;5.13;;;9.00;99.90;;;;;;5018627;28;20025;-72
2022/05/01 05:44:36;;;;;;;10.45;5.50;;;9.00;99.90;;;;;;5036657;28;20056;-71
2022/05/01 05:47:02;;;;;;;10.93;5.55;;;9.00;99.90;;;;;;5037684;28;20452;-72
2022/05/01 05:49:28;;;;;;;8.77;5.68;;;9.10;99.90;;;;;;5020347;28;20128;-73
2022/05/01 05:51:54;;;;;;;9.15;4.47;;;9.20;99.90;;;;;;5036838;28;20112;-70
2022/05/01 05:54:20;;;;;;;9.50;5.05;;;9.20;99.90;;;;;;5034843;28;20026;-73
2022/05/01 05:56:45;;;;;;;13.63;4.57;;;9.30;99.90;;;;;;5004456;28;20083;-73
2022/05/01 05:59:11;;;;;;;11.52;4.93;;;9.30;99.90;;;;;;5034990;28;20037;-72
2022/05/01 06:01:37;;;;;;;14.60;5.82;;;9.30;99.90;;;;;;5010112;28;20064;-72
2022/05/01 06:04:03;;;;;;;12.68;5.78;;;9.30;99.90;;;;;;5014003;28;20460;-73
2022/05/01 06:06:30;;;;;;;10.32;4.90;;;9.20;99.90;;;;;;5015478;28;20060;-71
2022/05/01 06:08:55;;;;;;;10.60;4.80;;;9.20;99.90;;;;;;5018705;28;20033;-71
2022/05/01 06:11:21;;;;;;;8.20;4.63;;;9.30;99.90;;;;;;5039680;28;20036;-70
2022/05/01 06:13:47;;;;;;;9.32;4.28;;;9.40;99.90;;;;;;5033493;28;20065;-72
2022/05/01 06:16:12;;;;;;;8.85;4.15;;;9.50;99.90;;;;;;5016849;28;20046;-72
2022/05/01 06:18:38;;;;;;;11.80;4.47;;;9.50;99.90;;;;;;5017095;28;20124;-71
2022/05/01 06:21:04;;;;;;;7.03;3.72;;;9.60;99.90;;;;;;5037337;28;20040;-71
2022/05/01 06:23:30;;;;;;;8.98;3.40;;;9.70;99.90;;;;;;5034200;28;20037;-73
2022/05/01 06:25:56;;;;;;;9.30;3.95;;;9.80;99.90;;;;;;5011229;28;20039;-72
2022/05/01 06:28:22;;;;;;;11.50;4.00;;;9.80;99.90;;;;;;5009042;28;20120;-73
2022/05/01 06:30:49;;;;;;;7.72;4.18;;;9.90;99.90;;;;;;5032728;28;20064;-72
2022/05/01 06:33:16;;;;;;;9.13;3.50;;;9.90;99.90;;;;;;5015425;28;20107;-71
2022/05/01 06:35:43;;;;;;;9.77;4.07;;;9.90;99.90;;;;;;5030905;28;20025;-71
2022/05/01 06:38:10;;;;;;;7.57;3.80;;;10.00;99.90;;;;;;5016966;28;20033;-73
2022/05/01 06:40:38;;;;;;;6.45;3.60;;;10.00;99.90;;;;;;5028610;28;20583;-72
2022/05/01 06:43:05;;;;;;;7.15;3.20;;;10.00;99.90;;;;;;5017920;28;20030;-71
2022/05/01 06:45:30;;;;;;;5.07;2.65;;;10.00;99.90;;;;;;5007004;28;20065;-72
2022/05/01 06:47:58;;;;;;;7.15;2.78;;;10.10;99.90;;;;;;5021514;28;20032;-70
2022/05/01 06:50:24;;;;;;;9.75;2.65;;;10.20;99.90;;;;;;5012523;28;20120;-74
2022/05/01 06:52:50;;;;;;;8.20;3.25;;;10.20;99.90;;;;;;5021028;28;20047;-71
2022/05/01 06:55:18;;;;;;;11.68;2.72;;;10.30;99.90;;;;;;5000405;28;20045;-71
2022/05/01 06:57:44;;;;;;;4.85;2.38;;;10.40;99.90;;;;;;5004777;28;20029;-72
2022/05/01 07:00:11;;;;;;;10.18;2.97;;;10.40;99.90;;;;;;5029902;28;20155;-73
2022/05/01 07:02:50;;;;;;;9.65;3.40;;;10.40;99.90;;;;;;5021064;28;20679;-72
2022/05/01 07:05:17;;;;;;;6.45;3.42;;;10.40;99.90;;;;;;5019977;28;20036;-71
2022/05/01 07:07:43;;;;;;;12.77;3.88;;;10.50;99.90;;;;;;5002313;28;20515;-72
2022/05/01 07:10:09;;;;;;;7.03;3.60;;;10.50;99.90;;;;;;5002269;28;20033;-71
2022/05/01 07:12:35;;;;;;;6.60;3.33;;;10.60;99.90;;;;;;4999038;28;20033;-73
2022/05/01 07:15:01;;;;;;;9.23;3.40;;;10.60;99.90;;;;;;5009363;28;20120;-72
2022/05/01 07:17:27;;;;;;;6.00;3.35;;;10.70;99.90;;;;;;5032843;28;20109;-72
2022/05/01 07:19:53;;;;;;;8.55;3.42;;;10.70;99.90;;;;;;5008452;28;20119;-71
2022/05/01 07:22:19;;;;;;;6.05;3.33;;;10.70;99.90;;;;;;5019047;28;20037;-71
2022/05/01 07:24:45;;;;;;;7.13;3.40;;;10.70;99.90;;;;;;5014686;28;20029;-72
2022/05/01 07:27:10;;;;;;;5.57;3.40;;;10.80;99.90;;;;;;5015306;28;20087;-73
2022/05/01 07:29:36;;;;;;;6.65;3.30;;;10.90;99.90;;;;;;5031631;28;20047;-73
2022/05/01 07:32:02;;;;;;;7.68;3.83;;;10.90;99.90;;;;;;5032938;28;20750;-71
2022/05/01 07:34:27;;;;;;;5.80;3.63;;;11.00;99.90;;;;;;5001006;28;20034;-73
2022/05/01 07:36:53;;;;;;;6.22;3.28;;;11.00;99.90;;;;;;5028468;28;20033;-73
2022/05/01 07:39:19;;;;;;;4.32;2.58;;;11.10;99.90;;;;;;5009313;28;20057;-72
2022/05/01 07:41:45;;;;;;;5.65;3.38;;;11.10;99.90;;;;;;4999945;28;20116;-71
2022/05/01 07:44:11;;;;;;;4.47;2.97;;;11.20;99.90;;;;;;5027777;28;20048;-72
2022/05/01 07:46:38;;;;;;;6.85;3.42;;;11.10;99.90;;;;;;5005398;28;20034;-73
2022/05/01 07:49:08;;;;;;;6.32;3.40;;;11.10;99.90;;;;;;4997227;28;20060;-71
2022/05/01 07:51:34;;;;;;;9.73;3.78;;;11.10;99.90;;;;;;5031202;28;20401;-70
2022/05/01 07:54:00;;;;;;;5.28;3.05;;;11.10;99.90;;;;;;5032400;28;20084;-70
2022/05/01 07:56:28;;;;;;;9.13;3.50;;;11.10;99.90;;;;;;5013276;28;20143;-71
2022/05/01 07:58:54;;;;;;;5.72;3.70;;;11.10;99.90;;;;;;5013102;28;21654;-71
2022/05/01 08:01:21;;;;;;;8.80;3.60;;;11.10;99.90;;;;;;5028233;28;20040;-72
2022/05/01 08:06:32;;;;;;;7.53;3.58;;;11.20;99.90;;;;;;5031668;28;20037;-72
2022/05/01 08:08:58;;;;;;;7.75;3.70;;;11.30;99.90;;;;;;5011014;28;20024;-74
2022/05/01 08:11:23;;;;;;;7.53;4.00;;;11.30;99.90;;;;;;5014563;28;20449;-72
2022/05/01 08:13:49;;;;;;;8.68;3.88;;;11.40;99.90;;;;;;5030414;28;20029;-77
2022/05/01 08:16:17;;;;;;;6.32;3.58;;;11.50;99.90;;;;;;5029974;28;20033;-73
2022/05/01 08:21:31;;;;;;;6.90;3.60;;;11.70;99.90;;;;;;5030636;28;20040;-75
2022/05/01 08:23:57;;;;;;;6.18;3.50;;;11.70;99.90;;;;;;5030676;28;20029;-75
2022/05/01 08:26:23;;;;;;;5.82;3.58;;;11.80;99.90;;;;;;5038954;28;20448;-71
2022/05/01 08:28:53;;;;;;;6.32;3.10;;;11.90;99.90;;;;;;5036577;28;20025;-71
2022/05/01 08:31:19;;;;;;;5.53;2.58;;;11.90;99.90;;;;;;5033593;28;20742;-73
2022/05/01 08:33:45;;;;;;;6.93;3.25;;;12.00;99.90;;;;;;5031927;28;20017;-72
2022/05/01 08:36:10;;;;;;;5.72;3.15;;;11.90;99.90;;;;;;5040532;28;20341;-73
2022/05/01 08:38:37;;;;;;;6.47;3.35;;;12.00;99.90;;;;;;5033562;28;20108;-72
2022/05/01 08:41:03;;;;;;;6.85;3.03;;;12.10;99.90;;;;;;5017359;28;20033;-72
2022/05/01 08:43:29;;;;;;;6.93;2.75;;;12.20;99.90;;;;;;5002158;28;20033;-73
2022/05/01 08:46:23;;;;;;;3.25;1.90;;;12.30;99.90;;;;;;5001684;28;20076;-72
2022/05/01 08:49:06;;;;;;;3.40;2.05;;;12.40;99.90;;;;;;5005232;28;20037;-72
2022/05/01 08:51:42;;;;;;;4.90;2.55;;;12.50;99.90;;;;;;5000027;28;20152;-74
2022/05/01 08:54:14;;;;;;;8.93;2.50;;;12.40;99.90;;;;;;5014733;28;20025;-75
2022/05/01 08:56:41;;;;;;;5.55;1.83;;;12.50;99.90;;;;;;5019103;28;20017;-72
2022/05/01 08:59:12;;;;;;;3.28;1.90;;;12.50;99.90;;;;;;5014658;28;20098;-73
2022/05/01 09:01:43;;;;;;;4.72;2.50;;;12.50;99.90;;;;;;5034095;28;20108;-73
2022/05/01 09:04:12;;;;;;;3.35;1.50;;;12.60;99.40;;;;;;5021684;28;20033;-73
2022/05/01 09:06:40;;;;;;;4.28;1.75;;;12.70;98.70;;;;;;5018534;28;20032;-74
2022/05/01 09:09:07;;;;;;;4.57;1.60;;;12.80;97.10;;;;;;5000972;28;20061;-73
2022/05/01 09:14:23;;;;;;;2.92;1.08;;;12.90;96.20;;;;;;5039823;28;20037;-73
2022/05/01 09:17:08;;;;;;;3.83;1.10;;;13.00;95.50;;;;;;5023162;28;20017;-73
2022/05/01 09:19:34;;;;;;;2.90;1.48;;;13.10;95.70;;;;;;5041583;28;20063;-74
2022/05/01 09:22:00;;;;;;;2.97;1.30;;;13.20;95.40;;;;;;5018353;28;20017;-73
2022/05/01 09:24:27;;;;;;;1.80;1.05;;;13.30;94.30;;;;;;5039385;28;20053;-73
2022/05/01 09:26:53;;;;;;;4.97;1.35;;;13.30;93.90;;;;;;5022279;28;20053;-73
2022/05/01 09:29:23;;;;;;;2.67;1.50;;;13.30;93.80;;;;;;5007138;28;20079;-71
2022/05/01 09:31:55;;;;;;;5.22;1.60;;;13.30;93.70;;;;;;5038494;28;20048;-74
2022/05/01 09:34:29;;;;;;;2.53;1.40;;;13.30;93.50;;;;;;5020262;28;20029;-72
2022/05/01 09:36:56;;;;;;;5.20;1.58;;;13.50;93.20;;;;;;5022515;28;20123;-73
2022/05/01 09:39:24;;;;;;;4.30;1.60;;;13.60;92.60;;;;;;5035925;28;20029;-73
2022/05/01 09:41:51;;;;;;;3.20;1.50;;;13.80;92.70;;;;;;5021536;28;20046;-74
2022/05/01 09:44:18;;;;;;;4.10;1.63;;;14.00;91.50;;;;;;5039636;28;20038;-72
2022/05/01 09:46:48;;;;;;;3.38;1.42;;;14.00;91.40;;;;;;5023997;28;20113;-71
2022/05/01 09:49:18;;;;;;;3.28;1.30;;;14.10;91.30;;;;;;5035364;28;20033;-74
2022/05/01 09:51:55;;;;;;;3.65;1.27;;;14.10;90.50;;;;;;5004404;28;20034;-73
2022/05/01 09:54:26;;;;;;;2.78;1.33;;;14.20;90.10;;;;;;5022169;28;20087;-74
2022/05/01 09:57:00;;;;;;;2.88;1.48;;;14.10;86.30;;;;;;5041132;28;20142;-72
2022/05/01 09:59:28;;;;;;;1.67;1.13;;;14.00;88.00;;;;;;5020833;28;20040;-74
2022/05/01 10:02:01;;;;;;;4.28;0.90;;;13.90;80.60;;;;;;5038459;28;20037;-71
2022/05/01 10:04:28;;;;;;;1.58;1.00;;;13.70;83.40;;;;;;5021166;28;20029;-71
2022/05/01 10:06:55;;;;;;;1.80;1.20;;;13.70;83.60;;;;;;5022542;28;20026;-72
2022/05/01 10:09:23;;;;;;;2.95;1.27;;;13.70;83.20;;;;;;5038984;28;20497;-72
2022/05/01 10:11:54;;;;;;;2.08;1.00;;;13.70;83.10;;;;;;5036817;28;20059;-72
2022/05/01 10:14:21;;;;;;;2.33;1.25;;;13.60;80.40;;;;;;5033367;28;20036;-73
2022/05/01 10:16:48;;;;;;;3.75;1.10;;;13.60;79.50;;;;;;5021858;28;20406;-73
2022/05/01 10:19:18;;;;;;;1.40;0.90;;;13.60;80.20;;;;;;5007972;28;20403;-72
2022/05/01 10:21:49;;;;;;;2.35;1.13;;;13.60;80.50;;;;;;5017751;28;20048;-73
2022/05/01 10:24:16;;;;;;;;;;;13.60;79.70;;;;;;5015749;28;20033;-73
2022/05/01 10:26:51;;;;;;;3.40;1.10;;;13.60;77.30;;;;;;5023213;28;19909;-73
2022/05/01 10:29:37;;;;;;;2.13;1.08;;;13.70;78.20;;;;;;5035045;28;20127;-72
2022/05/01 10:32:33;;;;;;;0.77;0.65;;;13.80;77.80;;;;;;5035476;28;20026;-72
2022/05/01 10:35:28;;;;;;;2.05;0.70;;;13.90;78.00;;;;;;5037095;28;20052;-73
2022/05/01 10:38:17;;;;;;;3.42;0.95;;;14.10;77.30;;;;;;5038572;28;20034;-73
2022/05/01 10:40:52;;;;;;;1.58;0.82;;;14.20;74.80;;;;;;5036010;28;20060;-72
2022/05/01 10:43:22;;;;;;;2.22;1.15;;;14.30;72.30;;;;;;5017642;28;20477;-73
2022/05/01 10:45:48;;;;;;;6.65;1.33;;;14.30;74.60;;;;;;5035862;28;20040;-74
2022/05/01 10:48:17;;;;;;;2.38;1.13;;;14.40;74.70;;;;;;5018668;28;20033;-73
2022/05/01 10:50:43;;;;;;;2.58;1.15;;;14.40;73.60;;;;;;5022127;28;20048;-74
2022/05/01 10:53:13;;;;;;;1.90;0.73;;;14.50;73.00;;;;;;5019732;28;20037;-72
2022/05/01 10:55:51;;;;;;;1.63;0.82;;;14.60;69.90;;;;;;5020342;28;20021;-72
2022/05/01 10:58:20;;;;;;;1.40;0.70;;;14.80;68.50;;;;;;5021336;28;20021;-73
2022/05/01 11:00:47;;;;;;;2.08;0.93;;;15.00;69.10;;;;;;5019704;28;20432;-72
2022/05/01 11:03:29;;;;;;;1.55;1.00;;;15.10;69.20;;;;;;5037174;28;20041;-72
2022/05/01 11:06:04;;;;;;;1.65;1.25;;;15.20;69.70;;;;;;5034072;28;20021;-72
2022/05/01 11:08:32;;;;;;;1.13;0.88;;;15.10;68.70;;;;;;5018179;28;20101;-73
2022/05/01 11:11:00;;;;;;;1.90;1.00;;;15.10;68.80;;;;;;5038455;28;20061;-72
2022/05/01 11:13:50;;;;;;;2.72;1.00;;;15.00;66.80;;;;;;5037220;28;20111;-73
2022/05/01 11:16:16;;;;;;;2.88;1.00;;;14.80;66.80;;;;;;5036994;28;20036;-74
2022/05/01 11:18:41;;;;;;;2.42;1.00;;;14.60;68.00;;;;;;5038162;28;20113;-71
2022/05/01 11:21:19;;;;;;;1.65;0.90;;;14.60;69.40;;;;;;5003278;28;20124;-71
2022/05/01 11:23:58;;;;;;;1.77;0.90;;;14.50;70.20;;;;;;5019159;28;20040;-72
2022/05/01 11:26:24;;;;;;;1.83;1.00;;;14.50;70.50;;;;;;5037284;28;20123;-71
2022/05/01 11:28:53;;;;;;;3.28;0.90;;;14.40;71.20;;;;;;5020389;28;20033;-73
2022/05/01 11:31:36;;;;;;;2.17;0.77;;;14.40;71.20;;;;;;5032483;28;20044;-71
2022/05/01 11:34:18;;;;;;;5.28;1.10;;;14.40;70.90;;;;;;5040191;28;20082;-71
2022/05/01 11:37:02;;;;;;;1.85;0.80;;;14.30;68.60;;;;;;5038467;28;20112;-72
2022/05/01 11:39:46;;;;;;;2.63;1.13;;;14.40;69.90;;;;;;5040911;28;20060;-72
2022/05/01 11:42:25;;;;;;;2.45;0.80;;;14.50;69.60;;;;;;5020264;28;20567;-71
2022/05/01 11:44:56;;;;;;;2.85;0.85;;;14.40;69.60;;;;;;5018741;28;20396;-72
2022/05/01 11:47:23;;;;;;;2.53;1.10;;;14.50;70.40;;;;;;5021300;28;20025;-72
2022/05/01 11:49:50;;;;;;;3.90;0.90;;;14.60;69.80;;;;;;5020012;28;20025;-71
2022/05/01 11:52:17;;;;;;;1.35;0.73;;;14.60;69.80;;;;;;5035691;28;20095;-72
2022/05/01 11:54:56;;;;;;;1.92;0.90;;;14.70;70.40;;;;;;5038282;28;20033;-70
2022/05/01 12:03:01;;;;;;;2.58;1.02;;;15.00;70.10;;;;;;5041553;28;20025;-70
2022/05/01 12:05:29;;;;;;;2.60;1.33;;;15.20;68.80;;;;;;5042930;28;20021;-74
2022/05/01 12:07:56;;;;;;;4.10;1.60;;;15.20;68.00;;;;;;5042626;28;20021;-71
2022/05/01 12:10:26;;;;;;;1.75;0.80;;;15.30;68.00;;;;;;5015597;28;20056;-71
2022/05/01 12:12:52;;;;;;;1.45;1.00;;;15.40;67.20;;;;;;5019168;28;20045;-73
2022/05/01 12:15:18;;;;;;;4.15;1.17;;;15.50;67.00;;;;;;5007711;28;20342;-71
2022/05/01 12:17:44;;;;;;;2.15;1.23;;;15.50;65.60;;;;;;5043211;28;20094;-71
2022/05/01 12:20:11;;;;;;;1.88;1.15;;;15.50;64.30;;;;;;5043811;28;20068;-71
2022/05/01 12:22:37;;;;;;;1.08;0.80;;;15.40;64.70;;;;;;5023385;28;20080;-72
2022/05/01 12:25:14;;;;;;;3.78;1.30;;;15.50;64.50;;;;;;5041962;28;20047;-73
2022/05/01 12:27:40;;;;;;;1.95;1.00;;;15.50;63.00;;;;;;5022446;28;20033;-73
2022/05/01 12:30:08;;;;;;;1.73;0.75;;;15.50;64.00;;;;;;5023643;28;20789;-72
2022/05/01 12:32:35;;;;;;;2.28;0.88;;;15.60;63.30;;;;;;5020772;28;20429;-73
2022/05/01 12:35:03;;;;;;;1.52;0.90;;;15.70;64.60;;;;;;5042064;28;20026;-73
2022/05/01 12:37:34;;;;;;;2.05;1.20;;;15.90;63.50;;;;;;5008000;28;20430;-72
2022/05/01 12:40:10;;;;;;;3.05;0.95;;;15.90;60.90;;;;;;5039609;28;20025;-73
2022/05/01 12:45:44;;;;;;;2.63;1.10;;;16.10;62.50;;;;;;5041788;28;20113;-72
2022/05/01 12:48:11;;;;;;;2.13;0.97;;;16.20;64.70;;;;;;5038081;28;20018;-73
2022/05/01 12:50:38;;;;;;;3.13;1.00;;;16.30;62.40;;;;;;5021414;28;20109;-73
2022/05/01 12:53:25;;;;;;;2.47;1.02;;;16.40;61.40;;;;;;5022368;28;20110;-72
2022/05/01 12:55:51;;;;;;;2.22;1.00;;;16.40;61.60;;;;;;5036145;28;20048;-73
2022/05/01 12:58:27;;;;;;;2.30;1.17;;;16.50;62.20;;;;;;5037586;28;20071;-71
2022/05/01 13:00:53;;;;;;;3.08;1.30;;;16.20;57.60;;;;;;5041106;28;20039;-73
2022/05/01 13:03:33;;;;;;;1.65;0.95;;;16.20;61.30;;;;;;5022780;28;20346;-72
2022/05/01 13:06:09;;;;;;;1.70;0.70;;;16.30;61.80;;;;;;5036501;28;20078;-70
2022/05/01 13:08:44;;;;;;;3.42;1.05;;;16.20;61.20;;;;;;5039783;28;20043;-72
2022/05/01 13:11:21;;;;;;;1.23;0.88;;;16.10;61.00;;;;;;5039658;28;20036;-74
2022/05/01 13:13:50;;;;;;;2.97;1.33;;;15.70;59.80;;;;;;5003969;28;20728;-72
2022/05/01 13:16:39;;;;;;;4.25;1.00;;;15.50;60.20;;;;;;5003756;28;20060;-73
2022/05/01 13:19:12;;;;;;;1.80;1.10;;;15.30;60.60;;;;;;5022844;28;20489;-73
2022/05/01 13:21:44;;;;;;;2.25;0.98;;;15.10;61.70;;;;;;5038752;28;20523;-71
2022/05/01 13:24:23;;;;;;;1.33;0.90;;;15.00;62.50;;;;;;5021106;28;20048;-73
2022/05/01 13:26:51;;;;;;;3.78;1.42;;;14.90;62.40;;;;;;5040434;28;20437;-73